sensor_id;sensor_type;location;lat;lon;timestamp;P1;durP1;ratioP1;P2;durP2;ratioP2
6095;SDS011;25081;42.698;23.298;2022-11-14T00:00:47;133.47;;;80.30;;
6095;SDS011;25081;42.698;23.298;2022-11-14T00:02:59;127.75;;;74.90;;
6095;SDS011;25081;42.698;23.298;2022-11-14T00:05:09;127.85;;;76.65;;
6095;SDS011;25081;42.698;23.298;2022-11-14T00:07:20;136.77;;;76.67;;
6095;SDS011;25081;42.698;23.298;2022-11-14T00:09:30;134.22;;;78.33;;
6095;SDS011;25081;42.698;23.298;2022-11-14T00:11:41;121.57;;;73.00;;
6095;SDS011;25081;42.698;23.298;2022-11-14T00:13:51;109.12;;;61.75;;
6095;SDS011;25081;42.698;23.298;2022-11-14T00:16:02;118.77;;;67.82;;
6095;SDS011;25081;42.698;23.298;2022-11-14T00:18:13;105.67;;;62.17;;
6095;SDS011;25081;42.698;23.298;2022-11-14T00:20:24;108.42;;;63.87;;
6095;SDS011;25081;42.698;23.298;2022-11-14T00:22:34;97.97;;;57.80;;
6095;SDS011;25081;42.698;23.298;2022-11-14T00:24:45;101.67;;;58.00;;
6095;SDS011;25081;42.698;23.298;2022-11-14T00:26:56;106.70;;;61.45;;
6095;SDS011;25081;42.698;23.298;2022-11-14T00:29:06;104.20;;;61.37;;
6095;SDS011;25081;42.698;23.298;2022-11-14T00:31:18;105.72;;;63.63;;
6095;SDS011;25081;42.698;23.298;2022-11-14T00:33:28;95.32;;;59.42;;
6095;SDS011;25081;42.698;23.298;2022-11-14T00:35:39;104.07;;;61.92;;
6095;SDS011;25081;42.698;23.298;2022-11-14T00:37:50;109.07;;;62.88;;
6095;SDS011;25081;42.698;23.298;2022-11-14T00:40:00;111.80;;;60.98;;
6095;SDS011;25081;42.698;23.298;2022-11-14T00:42:11;113.00;;;64.82;;
6095;SDS011;25081;42.698;23.298;2022-11-14T00:44:21;107.90;;;62.93;;
6095;SDS011;25081;42.698;23.298;2022-11-14T00:46:32;113.90;;;63.23;;
6095;SDS011;25081;42.698;23.298;2022-11-14T00:48:43;106.72;;;61.40;;
6095;SDS011;25081;42.698;23.298;2022-11-14T00:50:53;106.07;;;61.80;;
6095;SDS011;25081;42.698;23.298;2022-11-14T00:53:04;98.12;;;60.05;;
6095;SDS011;25081;42.698;23.298;2022-11-14T00:55:15;102.17;;;59.98;;
6095;SDS011;25081;42.698;23.298;2022-11-14T00:57:25;100.80;;;61.77;;
6095;SDS011;25081;42.698;23.298;2022-11-14T00:59:36;109.52;;;62.08;;
6095;SDS011;25081;42.698;23.298;2022-11-14T01:01:46;105.43;;;60.03;;
6095;SDS011;25081;42.698;23.298;2022-11-14T01:03:57;104.63;;;63.38;;
6095;SDS011;25081;42.698;23.298;2022-11-14T01:06:08;105.97;;;62.95;;
6095;SDS011;25081;42.698;23.298;2022-11-14T01:08:19;102.53;;;60.08;;
6095;SDS011;25081;42.698;23.298;2022-11-14T01:10:29;101.90;;;57.05;;
6095;SDS011;25081;42.698;23.298;2022-11-14T01:12:40;103.25;;;59.25;;
6095;SDS011;25081;42.698;23.298;2022-11-14T01:14:51;95.17;;;53.90;;
6095;SDS011;25081;42.698;23.298;2022-11-14T01:17:01;99.65;;;54.88;;
6095;SDS011;25081;42.698;23.298;2022-11-14T01:19:12;92.97;;;53.30;;
6095;SDS011;25081;42.698;23.298;2022-11-14T01:21:23;93.07;;;53.28;;
6095;SDS011;25081;42.698;23.298;2022-11-14T01:23:33;87.33;;;53.08;;
6095;SDS011;25081;42.698;23.298;2022-11-14T01:25:44;98.35;;;53.33;;
6095;SDS011;25081;42.698;23.298;2022-11-14T01:27:54;86.35;;;51.28;;
6095;SDS011;25081;42.698;23.298;2022-11-14T01:30:06;92.20;;;53.50;;
6095;SDS011;25081;42.698;23.298;2022-11-14T01:32:17;92.80;;;49.93;;
6095;SDS011;25081;42.698;23.298;2022-11-14T01:34:27;87.02;;;49.42;;
6095;SDS011;25081;42.698;23.298;2022-11-14T01:36:38;87.10;;;47.88;;
6095;SDS011;25081;42.698;23.298;2022-11-14T01:38:51;78.62;;;47.40;;
6095;SDS011;25081;42.698;23.298;2022-11-14T01:41:02;88.00;;;47.23;;
6095;SDS011;25081;42.698;23.298;2022-11-14T01:43:26;80.97;;;47.85;;
6095;SDS011;25081;42.698;23.298;2022-11-14T01:45:45;86.02;;;47.48;;
6095;SDS011;25081;42.698;23.298;2022-11-14T01:47:59;86.82;;;47.43;;
6095;SDS011;25081;42.698;23.298;2022-11-14T01:50:10;83.72;;;48.70;;
6095;SDS011;25081;42.698;23.298;2022-11-14T01:52:21;85.05;;;48.58;;
6095;SDS011;25081;42.698;23.298;2022-11-14T01:54:32;93.00;;;48.45;;
6095;SDS011;25081;42.698;23.298;2022-11-14T01:56:43;86.92;;;49.48;;
6095;SDS011;25081;42.698;23.298;2022-11-14T01:58:54;89.25;;;49.63;;
6095;SDS011;25081;42.698;23.298;2022-11-14T02:01:05;83.70;;;49.58;;
6095;SDS011;25081;42.698;23.298;2022-11-14T02:03:17;91.10;;;51.85;;
6095;SDS011;25081;42.698;23.298;2022-11-14T02:05:28;88.45;;;50.12;;
6095;SDS011;25081;42.698;23.298;2022-11-14T02:07:40;86.45;;;50.80;;
6095;SDS011;25081;42.698;23.298;2022-11-14T02:09:51;91.90;;;49.93;;
6095;SDS011;25081;42.698;23.298;2022-11-14T02:12:03;94.60;;;52.70;;
6095;SDS011;25081;42.698;23.298;2022-11-14T02:14:14;92.00;;;50.70;;
6095;SDS011;25081;42.698;23.298;2022-11-14T02:16:24;90.17;;;50.73;;
6095;SDS011;25081;42.698;23.298;2022-11-14T02:18:35;86.63;;;48.80;;
6095;SDS011;25081;42.698;23.298;2022-11-14T02:20:45;84.55;;;49.55;;
6095;SDS011;25081;42.698;23.298;2022-11-14T02:22:56;80.40;;;47.35;;
6095;SDS011;25081;42.698;23.298;2022-11-14T02:25:08;85.40;;;47.78;;
6095;SDS011;25081;42.698;23.298;2022-11-14T02:27:18;79.95;;;44.65;;
6095;SDS011;25081;42.698;23.298;2022-11-14T02:29:29;85.62;;;47.85;;
6095;SDS011;25081;42.698;23.298;2022-11-14T02:31:40;73.20;;;44.33;;
6095;SDS011;25081;42.698;23.298;2022-11-14T02:33:51;77.75;;;46.35;;
6095;SDS011;25081;42.698;23.298;2022-11-14T02:36:01;87.42;;;44.73;;
6095;SDS011;25081;42.698;23.298;2022-11-14T02:38:12;84.17;;;48.20;;
6095;SDS011;25081;42.698;23.298;2022-11-14T02:40:23;79.47;;;47.80;;
6095;SDS011;25081;42.698;23.298;2022-11-14T02:42:33;82.82;;;46.83;;
6095;SDS011;25081;42.698;23.298;2022-11-14T02:44:44;78.40;;;47.10;;
6095;SDS011;25081;42.698;23.298;2022-11-14T02:46:54;94.05;;;48.20;;
6095;SDS011;25081;42.698;23.298;2022-11-14T02:49:05;88.20;;;48.15;;
6095;SDS011;25081;42.698;23.298;2022-11-14T02:51:15;86.32;;;48.98;;
6095;SDS011;25081;42.698;23.298;2022-11-14T02:53:26;84.25;;;46.85;;
6095;SDS011;25081;42.698;23.298;2022-11-14T02:55:36;90.30;;;51.02;;
6095;SDS011;25081;42.698;23.298;2022-11-14T02:57:47;88.05;;;48.02;;
6095;SDS011;25081;42.698;23.298;2022-11-14T02:59:58;86.85;;;43.75;;
6095;SDS011;25081;42.698;23.298;2022-11-14T03:02:08;79.58;;;43.78;;
6095;SDS011;25081;42.698;23.298;2022-11-14T03:04:19;74.40;;;41.98;;
6095;SDS011;25081;42.698;23.298;2022-11-14T03:06:29;71.90;;;42.33;;
6095;SDS011;25081;42.698;23.298;2022-11-14T03:08:39;70.22;;;39.83;;
6095;SDS011;25081;42.698;23.298;2022-11-14T03:10:50;70.10;;;38.02;;
6095;SDS011;25081;42.698;23.298;2022-11-14T03:13:00;63.78;;;37.73;;
6095;SDS011;25081;42.698;23.298;2022-11-14T03:15:11;63.50;;;37.95;;
6095;SDS011;25081;42.698;23.298;2022-11-14T03:17:22;54.18;;;36.88;;
6095;SDS011;25081;42.698;23.298;2022-11-14T03:19:32;57.75;;;33.83;;
6095;SDS011;25081;42.698;23.298;2022-11-14T03:21:43;59.13;;;35.17;;
6095;SDS011;25081;42.698;23.298;2022-11-14T03:23:54;62.73;;;37.03;;
6095;SDS011;25081;42.698;23.298;2022-11-14T03:26:05;68.87;;;36.00;;
6095;SDS011;25081;42.698;23.298;2022-11-14T03:28:15;55.78;;;32.38;;
6095;SDS011;25081;42.698;23.298;2022-11-14T03:30:26;55.60;;;34.33;;
6095;SDS011;25081;42.698;23.298;2022-11-14T03:32:36;61.33;;;36.33;;
6095;SDS011;25081;42.698;23.298;2022-11-14T03:34:47;61.65;;;34.35;;
6095;SDS011;25081;42.698;23.298;2022-11-14T03:36:58;55.85;;;34.60;;
6095;SDS011;25081;42.698;23.298;2022-11-14T03:39:09;52.35;;;33.75;;
6095;SDS011;25081;42.698;23.298;2022-11-14T03:41:19;56.20;;;33.42;;
6095;SDS011;25081;42.698;23.298;2022-11-14T03:43:31;57.83;;;33.55;;
6095;SDS011;25081;42.698;23.298;2022-11-14T03:45:40;60.83;;;33.23;;
6095;SDS011;25081;42.698;23.298;2022-11-14T03:47:51;57.93;;;33.95;;
6095;SDS011;25081;42.698;23.298;2022-11-14T03:50:04;55.88;;;32.95;;
6095;SDS011;25081;42.698;23.298;2022-11-14T03:52:15;61.70;;;33.83;;
6095;SDS011;25081;42.698;23.298;2022-11-14T03:54:25;56.98;;;33.33;;
6095;SDS011;25081;42.698;23.298;2022-11-14T03:56:36;54.25;;;32.17;;
6095;SDS011;25081;42.698;23.298;2022-11-14T03:58:46;58.38;;;33.70;;
6095;SDS011;25081;42.698;23.298;2022-11-14T04:00:57;62.25;;;32.95;;
6095;SDS011;25081;42.698;23.298;2022-11-14T04:03:07;63.42;;;34.58;;
6095;SDS011;25081;42.698;23.298;2022-11-14T04:05:18;64.30;;;36.80;;
6095;SDS011;25081;42.698;23.298;2022-11-14T04:07:28;62.78;;;34.58;;
6095;SDS011;25081;42.698;23.298;2022-11-14T04:09:39;77.85;;;47.93;;
6095;SDS011;25081;42.698;23.298;2022-11-14T04:11:49;59.27;;;33.70;;
6095;SDS011;25081;42.698;23.298;2022-11-14T04:14:00;68.83;;;37.00;;
6095;SDS011;25081;42.698;23.298;2022-11-14T04:16:10;58.75;;;33.50;;
6095;SDS011;25081;42.698;23.298;2022-11-14T04:18:22;61.42;;;34.80;;
6095;SDS011;25081;42.698;23.298;2022-11-14T04:20:32;61.28;;;35.33;;
6095;SDS011;25081;42.698;23.298;2022-11-14T04:22:44;57.53;;;32.90;;
6095;SDS011;25081;42.698;23.298;2022-11-14T04:24:54;70.90;;;34.50;;
6095;SDS011;25081;42.698;23.298;2022-11-14T04:27:04;62.48;;;33.88;;
6095;SDS011;25081;42.698;23.298;2022-11-14T04:29:15;64.87;;;34.63;;
6095;SDS011;25081;42.698;23.298;2022-11-14T04:31:25;61.70;;;36.30;;
6095;SDS011;25081;42.698;23.298;2022-11-14T04:33:36;67.40;;;37.98;;
6095;SDS011;25081;42.698;23.298;2022-11-14T04:35:46;63.78;;;35.92;;
6095;SDS011;25081;42.698;23.298;2022-11-14T04:37:57;74.05;;;38.90;;
6095;SDS011;25081;42.698;23.298;2022-11-14T04:40:09;74.27;;;36.65;;
6095;SDS011;25081;42.698;23.298;2022-11-14T04:42:20;74.37;;;39.25;;
6095;SDS011;25081;42.698;23.298;2022-11-14T04:44:30;72.70;;;37.42;;
6095;SDS011;25081;42.698;23.298;2022-11-14T04:46:41;71.82;;;37.63;;
6095;SDS011;25081;42.698;23.298;2022-11-14T04:48:51;76.92;;;37.60;;
6095;SDS011;25081;42.698;23.298;2022-11-14T04:51:02;74.72;;;40.35;;
6095;SDS011;25081;42.698;23.298;2022-11-14T04:53:13;76.22;;;41.48;;
6095;SDS011;25081;42.698;23.298;2022-11-14T04:55:23;87.95;;;41.02;;
6095;SDS011;25081;42.698;23.298;2022-11-14T04:57:34;85.35;;;41.58;;
6095;SDS011;25081;42.698;23.298;2022-11-14T04:59:45;75.42;;;39.67;;
6095;SDS011;25081;42.698;23.298;2022-11-14T05:01:55;76.97;;;39.73;;
6095;SDS011;25081;42.698;23.298;2022-11-14T05:04:06;95.42;;;45.35;;
6095;SDS011;25081;42.698;23.298;2022-11-14T05:06:16;94.10;;;44.03;;
6095;SDS011;25081;42.698;23.298;2022-11-14T05:08:27;75.30;;;42.17;;
6095;SDS011;25081;42.698;23.298;2022-11-14T05:10:41;82.55;;;42.83;;
6095;SDS011;25081;42.698;23.298;2022-11-14T05:12:53;87.35;;;43.45;;
6095;SDS011;25081;42.698;23.298;2022-11-14T05:15:04;81.97;;;40.05;;
6095;SDS011;25081;42.698;23.298;2022-11-14T05:17:15;99.05;;;43.13;;
6095;SDS011;25081;42.698;23.298;2022-11-14T05:19:25;96.00;;;43.58;;
6095;SDS011;25081;42.698;23.298;2022-11-14T05:21:36;104.70;;;42.13;;
6095;SDS011;25081;42.698;23.298;2022-11-14T05:23:47;103.72;;;43.00;;
6095;SDS011;25081;42.698;23.298;2022-11-14T05:26:01;118.50;;;44.70;;
6095;SDS011;25081;42.698;23.298;2022-11-14T05:28:11;107.15;;;42.70;;
6095;SDS011;25081;42.698;23.298;2022-11-14T05:30:21;103.12;;;44.15;;
6095;SDS011;25081;42.698;23.298;2022-11-14T05:32:32;97.67;;;42.75;;
6095;SDS011;25081;42.698;23.298;2022-11-14T05:34:43;168.20;;;47.62;;
6095;SDS011;25081;42.698;23.298;2022-11-14T05:36:53;158.72;;;48.25;;
6095;SDS011;25081;42.698;23.298;2022-11-14T05:39:03;201.40;;;50.88;;
6095;SDS011;25081;42.698;23.298;2022-11-14T05:41:15;112.90;;;45.35;;
6095;SDS011;25081;42.698;23.298;2022-11-14T05:43:27;92.57;;;43.10;;
6095;SDS011;25081;42.698;23.298;2022-11-14T05:45:37;140.35;;;46.98;;
6095;SDS011;25081;42.698;23.298;2022-11-14T05:47:48;158.45;;;45.70;;
6095;SDS011;25081;42.698;23.298;2022-11-14T05:49:58;105.47;;;47.38;;
6095;SDS011;25081;42.698;23.298;2022-11-14T05:52:09;196.15;;;50.00;;
6095;SDS011;25081;42.698;23.298;2022-11-14T05:54:20;122.13;;;48.23;;
6095;SDS011;25081;42.698;23.298;2022-11-14T05:56:30;126.50;;;44.60;;
6095;SDS011;25081;42.698;23.298;2022-11-14T05:58:41;124.87;;;46.18;;
6095;SDS011;25081;42.698;23.298;2022-11-14T06:00:51;115.25;;;47.53;;
6095;SDS011;25081;42.698;23.298;2022-11-14T06:03:02;130.97;;;50.92;;
6095;SDS011;25081;42.698;23.298;2022-11-14T06:05:13;119.57;;;45.95;;
6095;SDS011;25081;42.698;23.298;2022-11-14T06:07:23;116.08;;;48.95;;
6095;SDS011;25081;42.698;23.298;2022-11-14T06:09:34;107.00;;;48.38;;
6095;SDS011;25081;42.698;23.298;2022-11-14T06:11:45;106.92;;;46.65;;
6095;SDS011;25081;42.698;23.298;2022-11-14T06:13:55;108.90;;;46.58;;
6095;SDS011;25081;42.698;23.298;2022-11-14T06:16:08;105.90;;;48.20;;
6095;SDS011;25081;42.698;23.298;2022-11-14T06:18:18;97.30;;;45.48;;
6095;SDS011;25081;42.698;23.298;2022-11-14T06:20:29;89.65;;;43.08;;
6095;SDS011;25081;42.698;23.298;2022-11-14T06:22:39;96.50;;;45.92;;
6095;SDS011;25081;42.698;23.298;2022-11-14T06:24:50;98.90;;;43.75;;
6095;SDS011;25081;42.698;23.298;2022-11-14T06:27:01;107.92;;;45.98;;
6095;SDS011;25081;42.698;23.298;2022-11-14T06:29:11;99.42;;;46.70;;
6095;SDS011;25081;42.698;23.298;2022-11-14T06:31:22;130.07;;;50.73;;
6095;SDS011;25081;42.698;23.298;2022-11-14T06:33:33;140.95;;;49.88;;
6095;SDS011;25081;42.698;23.298;2022-11-14T06:35:43;124.40;;;48.13;;
6095;SDS011;25081;42.698;23.298;2022-11-14T06:37:54;122.80;;;49.33;;
6095;SDS011;25081;42.698;23.298;2022-11-14T06:40:06;146.28;;;50.52;;
6095;SDS011;25081;42.698;23.298;2022-11-14T06:42:17;108.20;;;48.05;;
6095;SDS011;25081;42.698;23.298;2022-11-14T06:44:28;92.25;;;44.45;;
6095;SDS011;25081;42.698;23.298;2022-11-14T06:46:38;112.47;;;46.33;;
6095;SDS011;25081;42.698;23.298;2022-11-14T06:48:49;127.02;;;47.38;;
6095;SDS011;25081;42.698;23.298;2022-11-14T06:51:00;148.30;;;57.78;;
6095;SDS011;25081;42.698;23.298;2022-11-14T06:53:10;112.08;;;44.40;;
6095;SDS011;25081;42.698;23.298;2022-11-14T06:55:20;81.20;;;42.88;;
6095;SDS011;25081;42.698;23.298;2022-11-14T06:57:31;101.35;;;44.08;;
6095;SDS011;25081;42.698;23.298;2022-11-14T06:59:42;88.22;;;41.63;;
6095;SDS011;25081;42.698;23.298;2022-11-14T07:01:53;82.12;;;40.40;;
6095;SDS011;25081;42.698;23.298;2022-11-14T07:04:03;88.75;;;41.08;;
6095;SDS011;25081;42.698;23.298;2022-11-14T07:06:16;77.58;;;38.73;;
6095;SDS011;25081;42.698;23.298;2022-11-14T07:08:25;82.12;;;40.58;;
6095;SDS011;25081;42.698;23.298;2022-11-14T07:10:35;93.33;;;38.50;;
6095;SDS011;25081;42.698;23.298;2022-11-14T07:12:46;70.87;;;37.73;;
6095;SDS011;25081;42.698;23.298;2022-11-14T07:14:56;82.88;;;38.63;;
6095;SDS011;25081;42.698;23.298;2022-11-14T07:17:07;87.62;;;39.48;;
6095;SDS011;25081;42.698;23.298;2022-11-14T07:19:17;73.47;;;39.55;;
6095;SDS011;25081;42.698;23.298;2022-11-14T07:21:28;77.22;;;40.00;;
6095;SDS011;25081;42.698;23.298;2022-11-14T07:23:38;64.92;;;35.03;;
6095;SDS011;25081;42.698;23.298;2022-11-14T07:25:49;72.15;;;36.90;;
6095;SDS011;25081;42.698;23.298;2022-11-14T07:27:59;64.62;;;35.68;;
6095;SDS011;25081;42.698;23.298;2022-11-14T07:30:11;63.83;;;36.38;;
6095;SDS011;25081;42.698;23.298;2022-11-14T07:32:22;82.85;;;38.05;;
6095;SDS011;25081;42.698;23.298;2022-11-14T07:34:33;77.45;;;43.75;;
6095;SDS011;25081;42.698;23.298;2022-11-14T07:36:44;76.72;;;42.03;;
6095;SDS011;25081;42.698;23.298;2022-11-14T07:38:54;80.05;;;44.23;;
6095;SDS011;25081;42.698;23.298;2022-11-14T07:41:06;85.50;;;46.10;;
6095;SDS011;25081;42.698;23.298;2022-11-14T07:43:16;85.22;;;44.38;;
6095;SDS011;25081;42.698;23.298;2022-11-14T07:45:27;84.55;;;41.68;;
6095;SDS011;25081;42.698;23.298;2022-11-14T07:47:37;84.72;;;41.40;;
6095;SDS011;25081;42.698;23.298;2022-11-14T07:49:47;82.02;;;42.78;;
6095;SDS011;25081;42.698;23.298;2022-11-14T07:51:58;85.65;;;46.33;;
6095;SDS011;25081;42.698;23.298;2022-11-14T07:54:10;83.45;;;43.85;;
6095;SDS011;25081;42.698;23.298;2022-11-14T07:56:20;87.40;;;42.43;;
6095;SDS011;25081;42.698;23.298;2022-11-14T07:58:31;86.72;;;46.65;;
6095;SDS011;25081;42.698;23.298;2022-11-14T08:00:42;107.05;;;46.15;;
6095;SDS011;25081;42.698;23.298;2022-11-14T08:02:53;97.10;;;46.00;;
6095;SDS011;25081;42.698;23.298;2022-11-14T08:05:04;94.85;;;45.83;;
6095;SDS011;25081;42.698;23.298;2022-11-14T08:07:15;85.47;;;46.95;;
6095;SDS011;25081;42.698;23.298;2022-11-14T08:09:25;80.77;;;43.63;;
6095;SDS011;25081;42.698;23.298;2022-11-14T08:11:36;78.92;;;42.50;;
6095;SDS011;25081;42.698;23.298;2022-11-14T08:13:58;93.67;;;46.68;;
6095;SDS011;25081;42.698;23.298;2022-11-14T08:16:09;112.28;;;52.65;;
6095;SDS011;25081;42.698;23.298;2022-11-14T08:18:19;86.97;;;49.13;;
6095;SDS011;25081;42.698;23.298;2022-11-14T08:20:30;84.50;;;47.60;;
6095;SDS011;25081;42.698;23.298;2022-11-14T08:22:41;96.05;;;49.40;;
6095;SDS011;25081;42.698;23.298;2022-11-14T08:24:51;82.10;;;46.45;;
6095;SDS011;25081;42.698;23.298;2022-11-14T08:27:02;82.45;;;43.40;;
6095;SDS011;25081;42.698;23.298;2022-11-14T08:29:12;78.20;;;44.00;;
6095;SDS011;25081;42.698;23.298;2022-11-14T08:31:23;74.62;;;44.63;;
6095;SDS011;25081;42.698;23.298;2022-11-14T08:33:33;77.17;;;43.02;;
6095;SDS011;25081;42.698;23.298;2022-11-14T08:35:44;66.37;;;41.60;;
6095;SDS011;25081;42.698;23.298;2022-11-14T08:37:54;69.40;;;38.00;;
6095;SDS011;25081;42.698;23.298;2022-11-14T08:40:06;71.17;;;43.35;;
6095;SDS011;25081;42.698;23.298;2022-11-14T08:42:17;57.78;;;38.75;;
6095;SDS011;25081;42.698;23.298;2022-11-14T08:44:28;70.45;;;42.10;;
6095;SDS011;25081;42.698;23.298;2022-11-14T08:46:38;73.22;;;41.75;;
6095;SDS011;25081;42.698;23.298;2022-11-14T08:48:49;64.53;;;38.73;;
6095;SDS011;25081;42.698;23.298;2022-11-14T08:51:01;61.45;;;37.40;;
6095;SDS011;25081;42.698;23.298;2022-11-14T08:53:12;54.87;;;37.07;;
6095;SDS011;25081;42.698;23.298;2022-11-14T08:55:23;53.80;;;37.37;;
6095;SDS011;25081;42.698;23.298;2022-11-14T08:57:34;50.63;;;34.83;;
6095;SDS011;25081;42.698;23.298;2022-11-14T08:59:45;60.90;;;39.07;;
6095;SDS011;25081;42.698;23.298;2022-11-14T09:01:56;64.70;;;39.07;;
6095;SDS011;25081;42.698;23.298;2022-11-14T09:04:06;53.17;;;36.77;;
6095;SDS011;25081;42.698;23.298;2022-11-14T09:06:17;53.83;;;36.73;;
6095;SDS011;25081;42.698;23.298;2022-11-14T09:08:28;60.53;;;39.40;;
6095;SDS011;25081;42.698;23.298;2022-11-14T09:10:38;55.20;;;33.83;;
6095;SDS011;25081;42.698;23.298;2022-11-14T09:12:54;55.52;;;36.20;;
6095;SDS011;25081;42.698;23.298;2022-11-14T09:15:06;55.50;;;37.33;;
6095;SDS011;25081;42.698;23.298;2022-11-14T09:17:17;58.80;;;36.98;;
6095;SDS011;25081;42.698;23.298;2022-11-14T09:19:28;50.50;;;36.17;;
6095;SDS011;25081;42.698;23.298;2022-11-14T09:21:38;60.63;;;37.50;;
6095;SDS011;25081;42.698;23.298;2022-11-14T09:23:49;56.00;;;38.60;;
6095;SDS011;25081;42.698;23.298;2022-11-14T09:26:03;56.60;;;38.63;;
6095;SDS011;25081;42.698;23.298;2022-11-14T09:28:13;49.93;;;37.07;;
6095;SDS011;25081;42.698;23.298;2022-11-14T09:30:24;48.80;;;38.37;;
6095;SDS011;25081;42.698;23.298;2022-11-14T09:32:34;56.20;;;38.57;;
6095;SDS011;25081;42.698;23.298;2022-11-14T09:34:45;56.73;;;38.97;;
6095;SDS011;25081;42.698;23.298;2022-11-14T09:36:56;57.40;;;40.97;;
6095;SDS011;25081;42.698;23.298;2022-11-14T09:39:06;61.60;;;42.40;;
6095;SDS011;25081;42.698;23.298;2022-11-14T09:41:22;56.30;;;41.37;;
6095;SDS011;25081;42.698;23.298;2022-11-14T09:43:36;53.60;;;41.20;;
6095;SDS011;25081;42.698;23.298;2022-11-14T09:45:54;61.57;;;41.93;;
6095;SDS011;25081;42.698;23.298;2022-11-14T09:48:05;61.93;;;42.43;;
6095;SDS011;25081;42.698;23.298;2022-11-14T09:50:16;59.23;;;43.23;;
6095;SDS011;25081;42.698;23.298;2022-11-14T09:52:26;58.57;;;43.00;;
6095;SDS011;25081;42.698;23.298;2022-11-14T09:54:39;62.60;;;44.37;;
6095;SDS011;25081;42.698;23.298;2022-11-14T09:56:50;56.87;;;41.83;;
6095;SDS011;25081;42.698;23.298;2022-11-14T09:59:01;60.40;;;44.37;;
6095;SDS011;25081;42.698;23.298;2022-11-14T10:01:13;62.93;;;46.27;;
6095;SDS011;25081;42.698;23.298;2022-11-14T10:03:23;64.40;;;47.70;;
6095;SDS011;25081;42.698;23.298;2022-11-14T10:05:38;63.30;;;47.17;;
6095;SDS011;25081;42.698;23.298;2022-11-14T10:07:54;67.27;;;47.70;;
6095;SDS011;25081;42.698;23.298;2022-11-14T10:10:08;81.20;;;49.73;;
6095;SDS011;25081;42.698;23.298;2022-11-14T10:12:19;62.93;;;45.33;;
6095;SDS011;25081;42.698;23.298;2022-11-14T10:14:38;66.30;;;47.57;;
6095;SDS011;25081;42.698;23.298;2022-11-14T10:16:59;61.33;;;46.13;;
6095;SDS011;25081;42.698;23.298;2022-11-14T10:19:14;64.27;;;46.77;;
6095;SDS011;25081;42.698;23.298;2022-11-14T10:21:34;66.63;;;47.47;;
6095;SDS011;25081;42.698;23.298;2022-11-14T10:23:44;65.67;;;46.00;;
6095;SDS011;25081;42.698;23.298;2022-11-14T10:25:54;61.80;;;46.90;;
6095;SDS011;25081;42.698;23.298;2022-11-14T10:28:10;63.93;;;49.30;;
6095;SDS011;25081;42.698;23.298;2022-11-14T10:30:20;68.27;;;49.00;;
6095;SDS011;25081;42.698;23.298;2022-11-14T10:32:37;63.33;;;47.83;;
6095;SDS011;25081;42.698;23.298;2022-11-14T10:35:09;74.57;;;48.00;;
6095;SDS011;25081;42.698;23.298;2022-11-14T10:37:21;67.87;;;48.13;;
6095;SDS011;25081;42.698;23.298;2022-11-14T10:39:31;61.97;;;47.67;;
6095;SDS011;25081;42.698;23.298;2022-11-14T10:41:41;64.70;;;49.30;;
6095;SDS011;25081;42.698;23.298;2022-11-14T10:43:52;61.27;;;47.43;;
6095;SDS011;25081;42.698;23.298;2022-11-14T10:46:04;63.93;;;47.20;;
6095;SDS011;25081;42.698;23.298;2022-11-14T10:48:15;65.73;;;45.93;;
6095;SDS011;25081;42.698;23.298;2022-11-14T10:50:26;67.63;;;46.53;;
6095;SDS011;25081;42.698;23.298;2022-11-14T10:52:36;72.80;;;49.93;;
6095;SDS011;25081;42.698;23.298;2022-11-14T10:54:47;70.63;;;47.27;;
6095;SDS011;25081;42.698;23.298;2022-11-14T10:56:57;67.43;;;49.30;;
6095;SDS011;25081;42.698;23.298;2022-11-14T10:59:08;65.10;;;45.97;;
6095;SDS011;25081;42.698;23.298;2022-11-14T11:01:32;66.37;;;48.10;;
6095;SDS011;25081;42.698;23.298;2022-11-14T11:03:45;74.10;;;48.47;;
6095;SDS011;25081;42.698;23.298;2022-11-14T11:05:56;75.60;;;48.80;;
6095;SDS011;25081;42.698;23.298;2022-11-14T11:08:06;69.30;;;46.70;;
6095;SDS011;25081;42.698;23.298;2022-11-14T11:10:37;68.27;;;45.97;;
6095;SDS011;25081;42.698;23.298;2022-11-14T11:13:03;76.20;;;50.47;;
6095;SDS011;25081;42.698;23.298;2022-11-14T11:15:15;68.63;;;45.10;;
6095;SDS011;25081;42.698;23.298;2022-11-14T11:17:24;73.60;;;46.77;;
6095;SDS011;25081;42.698;23.298;2022-11-14T11:19:35;72.87;;;50.43;;
6095;SDS011;25081;42.698;23.298;2022-11-14T11:21:47;73.23;;;49.50;;
6095;SDS011;25081;42.698;23.298;2022-11-14T11:23:56;77.23;;;51.73;;
6095;SDS011;25081;42.698;23.298;2022-11-14T11:26:14;76.43;;;48.30;;
6095;SDS011;25081;42.698;23.298;2022-11-14T11:28:20;81.00;;;49.23;;
6095;SDS011;25081;42.698;23.298;2022-11-14T11:30:30;85.90;;;47.53;;
6095;SDS011;25081;42.698;23.298;2022-11-14T11:32:41;78.72;;;49.75;;
6095;SDS011;25081;42.698;23.298;2022-11-14T11:34:51;86.53;;;48.80;;
6095;SDS011;25081;42.698;23.298;2022-11-14T11:37:03;83.63;;;50.30;;
6095;SDS011;25081;42.698;23.298;2022-11-14T11:39:15;83.50;;;49.33;;
6095;SDS011;25081;42.698;23.298;2022-11-14T11:41:24;80.10;;;49.67;;
6095;SDS011;25081;42.698;23.298;2022-11-14T11:43:37;98.20;;;53.23;;
6095;SDS011;25081;42.698;23.298;2022-11-14T11:45:47;85.55;;;54.65;;
6095;SDS011;25081;42.698;23.298;2022-11-14T11:47:59;84.87;;;53.25;;
6095;SDS011;25081;42.698;23.298;2022-11-14T11:50:13;85.07;;;55.43;;
6095;SDS011;25081;42.698;23.298;2022-11-14T11:52:25;91.30;;;54.30;;
6095;SDS011;25081;42.698;23.298;2022-11-14T11:54:39;92.13;;;55.30;;
6095;SDS011;25081;42.698;23.298;2022-11-14T11:56:47;97.13;;;54.93;;
6095;SDS011;25081;42.698;23.298;2022-11-14T11:58:57;87.50;;;57.60;;
6095;SDS011;25081;42.698;23.298;2022-11-14T12:01:09;90.37;;;54.90;;
6095;SDS011;25081;42.698;23.298;2022-11-14T12:03:20;88.63;;;55.50;;
6095;SDS011;25081;42.698;23.298;2022-11-14T12:05:33;89.57;;;56.67;;
6095;SDS011;25081;42.698;23.298;2022-11-14T12:07:45;94.20;;;55.90;;
6095;SDS011;25081;42.698;23.298;2022-11-14T12:09:54;84.20;;;53.90;;
6095;SDS011;25081;42.698;23.298;2022-11-14T12:12:08;89.97;;;54.80;;
6095;SDS011;25081;42.698;23.298;2022-11-14T12:20:04;89.10;;;55.50;;
6095;SDS011;25081;42.698;23.298;2022-11-14T12:22:34;83.53;;;53.10;;
6095;SDS011;25081;42.698;23.298;2022-11-14T12:28:07;93.30;;;53.60;;
6095;SDS011;25081;42.698;23.298;2022-11-14T12:30:22;80.60;;;55.63;;
6095;SDS011;25081;42.698;23.298;2022-11-14T12:32:32;87.70;;;54.80;;
6095;SDS011;25081;42.698;23.298;2022-11-14T12:34:43;87.27;;;56.47;;
6095;SDS011;25081;42.698;23.298;2022-11-14T12:36:53;95.50;;;57.27;;
6095;SDS011;25081;42.698;23.298;2022-11-14T12:39:04;87.03;;;56.07;;
6095;SDS011;25081;42.698;23.298;2022-11-14T12:41:21;90.73;;;55.33;;
6095;SDS011;25081;42.698;23.298;2022-11-14T12:43:32;88.10;;;57.97;;
6095;SDS011;25081;42.698;23.298;2022-11-14T12:45:55;82.43;;;54.23;;
6095;SDS011;25081;42.698;23.298;2022-11-14T12:48:20;83.23;;;54.00;;
6095;SDS011;25081;42.698;23.298;2022-11-14T12:50:38;97.00;;;53.40;;
6095;SDS011;25081;42.698;23.298;2022-11-14T12:52:49;89.63;;;56.60;;
6095;SDS011;25081;42.698;23.298;2022-11-14T12:54:59;97.30;;;55.47;;